sensor_id;sensor_type;location;lat;lon;timestamp;P1;durP1;ratioP1;P2;durP2;ratioP2
2388;SDS011;1205;47.984;7.668;2022-07-22T00:00:57;10.03;;;5.10;;
2388;SDS011;1205;47.984;7.668;2022-07-22T00:03:23;6.70;;;6.10;;
2388;SDS011;1205;47.984;7.668;2022-07-22T00:05:49;8.43;;;5.20;;
2388;SDS011;1205;47.984;7.668;2022-07-22T00:08:15;5.40;;;5.00;;
2388;SDS011;1205;47.984;7.668;2022-07-22T00:10:41;5.73;;;5.27;;
2388;SDS011;1205;47.984;7.668;2022-07-22T00:13:07;7.50;;;5.77;;
2388;SDS011;1205;47.984;7.668;2022-07-22T00:15:33;6.50;;;5.87;;
2388;SDS011;1205;47.984;7.668;2022-07-22T00:17:58;6.20;;;5.17;;
2388;SDS011;1205;47.984;7.668;2022-07-22T00:20:27;6.83;;;5.20;;
2388;SDS011;1205;47.984;7.668;2022-07-22T00:22:53;6.20;;;5.60;;
2388;SDS011;1205;47.984;7.668;2022-07-22T00:25:19;5.50;;;5.03;;
2388;SDS011;1205;47.984;7.668;2022-07-22T00:27:44;6.17;;;5.67;;
2388;SDS011;1205;47.984;7.668;2022-07-22T00:30:10;6.00;;;4.93;;
2388;SDS011;1205;47.984;7.668;2022-07-22T00:32:36;7.13;;;5.77;;
2388;SDS011;1205;47.984;7.668;2022-07-22T00:35:03;6.87;;;6.10;;
2388;SDS011;1205;47.984;7.668;2022-07-22T00:37:29;9.90;;;5.70;;
2388;SDS011;1205;47.984;7.668;2022-07-22T00:39:55;7.23;;;5.70;;
2388;SDS011;1205;47.984;7.668;2022-07-22T00:42:21;7.00;;;5.40;;
2388;SDS011;1205;47.984;7.668;2022-07-22T00:44:46;9.67;;;6.40;;
2388;SDS011;1205;47.984;7.668;2022-07-22T00:47:12;8.90;;;5.53;;
2388;SDS011;1205;47.984;7.668;2022-07-22T00:49:38;5.80;;;5.20;;
2388;SDS011;1205;47.984;7.668;2022-07-22T00:52:04;6.10;;;5.60;;
2388;SDS011;1205;47.984;7.668;2022-07-22T00:54:30;9.33;;;6.27;;
2388;SDS011;1205;47.984;7.668;2022-07-22T00:56:57;7.77;;;6.13;;
2388;SDS011;1205;47.984;7.668;2022-07-22T00:59:23;10.07;;;6.63;;
2388;SDS011;1205;47.984;7.668;2022-07-22T01:01:49;6.23;;;5.80;;
2388;SDS011;1205;47.984;7.668;2022-07-22T01:04:16;6.90;;;6.20;;
2388;SDS011;1205;47.984;7.668;2022-07-22T01:06:42;7.00;;;6.30;;
2388;SDS011;1205;47.984;7.668;2022-07-22T01:09:09;6.77;;;5.63;;
2388;SDS011;1205;47.984;7.668;2022-07-22T01:11:35;6.70;;;6.20;;
2388;SDS011;1205;47.984;7.668;2022-07-22T01:14:01;8.30;;;6.60;;
2388;SDS011;1205;47.984;7.668;2022-07-22T01:16:28;9.87;;;6.33;;
2388;SDS011;1205;47.984;7.668;2022-07-22T01:18:54;8.67;;;6.50;;
2388;SDS011;1205;47.984;7.668;2022-07-22T01:21:20;6.90;;;6.30;;
2388;SDS011;1205;47.984;7.668;2022-07-22T01:23:49;8.00;;;6.70;;
2388;SDS011;1205;47.984;7.668;2022-07-22T01:26:15;8.43;;;6.67;;
2388;SDS011;1205;47.984;7.668;2022-07-22T01:28:42;8.10;;;6.97;;
2388;SDS011;1205;47.984;7.668;2022-07-22T01:31:08;10.03;;;6.67;;
2388;SDS011;1205;47.984;7.668;2022-07-22T01:33:35;8.30;;;7.13;;
2388;SDS011;1205;47.984;7.668;2022-07-22T01:36:02;8.13;;;6.60;;
2388;SDS011;1205;47.984;7.668;2022-07-22T01:38:28;9.80;;;7.10;;
2388;SDS011;1205;47.984;7.668;2022-07-22T01:40:54;9.40;;;6.87;;
2388;SDS011;1205;47.984;7.668;2022-07-22T01:43:20;8.93;;;7.07;;
2388;SDS011;1205;47.984;7.668;2022-07-22T01:45:47;9.53;;;6.97;;
2388;SDS011;1205;47.984;7.668;2022-07-22T01:48:15;7.13;;;6.43;;
2388;SDS011;1205;47.984;7.668;2022-07-22T01:50:41;9.97;;;6.00;;
2388;SDS011;1205;47.984;7.668;2022-07-22T01:53:07;8.50;;;6.47;;
2388;SDS011;1205;47.984;7.668;2022-07-22T01:55:33;6.40;;;5.90;;
2388;SDS011;1205;47.984;7.668;2022-07-22T01:58:00;6.40;;;5.47;;
2388;SDS011;1205;47.984;7.668;2022-07-22T02:00:26;10.27;;;6.77;;
2388;SDS011;1205;47.984;7.668;2022-07-22T02:02:52;11.10;;;6.30;;
2388;SDS011;1205;47.984;7.668;2022-07-22T02:05:18;8.13;;;6.30;;
2388;SDS011;1205;47.984;7.668;2022-07-22T02:07:44;7.27;;;6.60;;
2388;SDS011;1205;47.984;7.668;2022-07-22T02:10:09;6.40;;;5.90;;
2388;SDS011;1205;47.984;7.668;2022-07-22T02:12:35;6.57;;;5.97;;
2388;SDS011;1205;47.984;7.668;2022-07-22T02:15:01;8.23;;;5.53;;
2388;SDS011;1205;47.984;7.668;2022-07-22T02:17:27;6.30;;;5.80;;
2388;SDS011;1205;47.984;7.668;2022-07-22T02:19:53;6.47;;;5.90;;
2388;SDS011;1205;47.984;7.668;2022-07-22T02:22:19;8.17;;;6.47;;
2388;SDS011;1205;47.984;7.668;2022-07-22T02:24:44;6.50;;;5.80;;
2388;SDS011;1205;47.984;7.668;2022-07-22T02:27:11;8.07;;;6.67;;
2388;SDS011;1205;47.984;7.668;2022-07-22T02:29:37;8.83;;;6.70;;
2388;SDS011;1205;47.984;7.668;2022-07-22T02:32:02;6.93;;;6.37;;
2388;SDS011;1205;47.984;7.668;2022-07-22T02:34:28;7.63;;;6.70;;
2388;SDS011;1205;47.984;7.668;2022-07-22T02:36:54;6.63;;;6.00;;
2388;SDS011;1205;47.984;7.668;2022-07-22T02:39:20;6.60;;;6.10;;
2388;SDS011;1205;47.984;7.668;2022-07-22T02:41:46;16.90;;;7.30;;
2388;SDS011;1205;47.984;7.668;2022-07-22T02:44:12;8.90;;;7.17;;
2388;SDS011;1205;47.984;7.668;2022-07-22T02:46:37;10.67;;;7.30;;
2388;SDS011;1205;47.984;7.668;2022-07-22T02:49:03;8.10;;;7.10;;
2388;SDS011;1205;47.984;7.668;2022-07-22T02:51:29;7.80;;;6.80;;
2388;SDS011;1205;47.984;7.668;2022-07-22T02:53:55;7.43;;;6.83;;
2388;SDS011;1205;47.984;7.668;2022-07-22T02:56:21;8.90;;;6.40;;
2388;SDS011;1205;47.984;7.668;2022-07-22T02:58:47;9.07;;;6.83;;
2388;SDS011;1205;47.984;7.668;2022-07-22T03:01:18;6.63;;;6.10;;
2388;SDS011;1205;47.984;7.668;2022-07-22T03:03:44;6.60;;;6.00;;
2388;SDS011;1205;47.984;7.668;2022-07-22T03:06:10;8.53;;;6.83;;
2388;SDS011;1205;47.984;7.668;2022-07-22T03:08:36;7.00;;;6.30;;
2388;SDS011;1205;47.984;7.668;2022-07-22T03:11:03;7.37;;;6.67;;
2388;SDS011;1205;47.984;7.668;2022-07-22T03:13:29;12.43;;;6.50;;
2388;SDS011;1205;47.984;7.668;2022-07-22T03:15:55;6.30;;;5.67;;
2388;SDS011;1205;47.984;7.668;2022-07-22T03:18:20;7.77;;;5.87;;
2388;SDS011;1205;47.984;7.668;2022-07-22T03:20:46;8.60;;;6.60;;
2388;SDS011;1205;47.984;7.668;2022-07-22T03:23:12;6.60;;;5.93;;
2388;SDS011;1205;47.984;7.668;2022-07-22T03:25:38;6.83;;;6.23;;
2388;SDS011;1205;47.984;7.668;2022-07-22T03:28:04;7.10;;;6.40;;
2388;SDS011;1205;47.984;7.668;2022-07-22T03:30:31;7.70;;;6.97;;
2388;SDS011;1205;47.984;7.668;2022-07-22T03:32:56;7.27;;;6.73;;
2388;SDS011;1205;47.984;7.668;2022-07-22T03:35:22;9.50;;;7.10;;
2388;SDS011;1205;47.984;7.668;2022-07-22T03:37:48;7.40;;;6.67;;
2388;SDS011;1205;47.984;7.668;2022-07-22T03:40:14;7.30;;;6.60;;
2388;SDS011;1205;47.984;7.668;2022-07-22T03:42:40;7.90;;;7.10;;
2388;SDS011;1205;47.984;7.668;2022-07-22T03:45:06;12.33;;;6.87;;
2388;SDS011;1205;47.984;7.668;2022-07-22T03:47:32;8.23;;;7.40;;
2388;SDS011;1205;47.984;7.668;2022-07-22T03:49:58;7.20;;;6.07;;
2388;SDS011;1205;47.984;7.668;2022-07-22T03:52:24;7.77;;;6.60;;
2388;SDS011;1205;47.984;7.668;2022-07-22T03:54:50;7.87;;;7.17;;
2388;SDS011;1205;47.984;7.668;2022-07-22T03:57:16;7.70;;;6.97;;
2388;SDS011;1205;47.984;7.668;2022-07-22T03:59:42;7.83;;;7.03;;
2388;SDS011;1205;47.984;7.668;2022-07-22T04:02:07;7.00;;;6.07;;
2388;SDS011;1205;47.984;7.668;2022-07-22T04:04:33;7.17;;;6.57;;
2388;SDS011;1205;47.984;7.668;2022-07-22T04:06:59;7.80;;;7.07;;
2388;SDS011;1205;47.984;7.668;2022-07-22T04:09:25;10.10;;;7.80;;
2388;SDS011;1205;47.984;7.668;2022-07-22T04:11:50;9.50;;;8.07;;
2388;SDS011;1205;47.984;7.668;2022-07-22T04:14:17;8.37;;;7.53;;
2388;SDS011;1205;47.984;7.668;2022-07-22T04:16:42;8.00;;;7.20;;
2388;SDS011;1205;47.984;7.668;2022-07-22T04:19:11;9.77;;;7.27;;
2388;SDS011;1205;47.984;7.668;2022-07-22T04:21:36;10.97;;;7.40;;
2388;SDS011;1205;47.984;7.668;2022-07-22T04:24:03;7.07;;;6.37;;
2388;SDS011;1205;47.984;7.668;2022-07-22T04:26:31;7.53;;;6.87;;
2388;SDS011;1205;47.984;7.668;2022-07-22T04:28:57;7.83;;;6.77;;
2388;SDS011;1205;47.984;7.668;2022-07-22T04:31:23;9.17;;;8.27;;
2388;SDS011;1205;47.984;7.668;2022-07-22T04:33:49;10.00;;;7.93;;
2388;SDS011;1205;47.984;7.668;2022-07-22T04:36:15;10.40;;;8.73;;
2388;SDS011;1205;47.984;7.668;2022-07-22T04:38:40;7.83;;;6.87;;
2388;SDS011;1205;47.984;7.668;2022-07-22T04:41:06;13.30;;;8.33;;
2388;SDS011;1205;47.984;7.668;2022-07-22T04:43:32;9.27;;;8.27;;
2388;SDS011;1205;47.984;7.668;2022-07-22T04:45:58;9.47;;;8.23;;
2388;SDS011;1205;47.984;7.668;2022-07-22T04:48:23;8.50;;;7.60;;
2388;SDS011;1205;47.984;7.668;2022-07-22T04:50:49;10.20;;;8.40;;
2388;SDS011;1205;47.984;7.668;2022-07-22T04:53:15;8.60;;;6.53;;
2388;SDS011;1205;47.984;7.668;2022-07-22T04:55:41;8.80;;;7.90;;
2388;SDS011;1205;47.984;7.668;2022-07-22T04:58:06;10.77;;;7.23;;
2388;SDS011;1205;47.984;7.668;2022-07-22T05:00:32;12.47;;;6.93;;
2388;SDS011;1205;47.984;7.668;2022-07-22T05:02:58;7.47;;;6.33;;
2388;SDS011;1205;47.984;7.668;2022-07-22T05:05:24;10.67;;;6.53;;
2388;SDS011;1205;47.984;7.668;2022-07-22T05:07:50;11.80;;;7.10;;
2388;SDS011;1205;47.984;7.668;2022-07-22T05:10:16;8.87;;;6.60;;
2388;SDS011;1205;47.984;7.668;2022-07-22T05:12:42;8.73;;;6.57;;
2388;SDS011;1205;47.984;7.668;2022-07-22T05:15:08;10.27;;;5.93;;
2388;SDS011;1205;47.984;7.668;2022-07-22T05:17:33;8.57;;;6.90;;
2388;SDS011;1205;47.984;7.668;2022-07-22T05:20:01;11.43;;;5.80;;
2388;SDS011;1205;47.984;7.668;2022-07-22T05:22:28;7.57;;;6.90;;
2388;SDS011;1205;47.984;7.668;2022-07-22T05:24:53;8.37;;;6.43;;
2388;SDS011;1205;47.984;7.668;2022-07-22T05:27:19;8.30;;;7.17;;
2388;SDS011;1205;47.984;7.668;2022-07-22T05:29:45;8.10;;;7.40;;
2388;SDS011;1205;47.984;7.668;2022-07-22T05:32:11;9.63;;;7.10;;
2388;SDS011;1205;47.984;7.668;2022-07-22T05:34:36;9.23;;;7.00;;
2388;SDS011;1205;47.984;7.668;2022-07-22T05:37:02;16.83;;;7.57;;
2388;SDS011;1205;47.984;7.668;2022-07-22T05:39:28;9.63;;;7.10;;
2388;SDS011;1205;47.984;7.668;2022-07-22T05:41:53;12.00;;;7.30;;
2388;SDS011;1205;47.984;7.668;2022-07-22T05:44:19;10.67;;;8.20;;
2388;SDS011;1205;47.984;7.668;2022-07-22T05:46:45;9.47;;;7.90;;
2388;SDS011;1205;47.984;7.668;2022-07-22T05:49:10;9.00;;;8.20;;
2388;SDS011;1205;47.984;7.668;2022-07-22T05:51:36;14.50;;;8.80;;
2388;SDS011;1205;47.984;7.668;2022-07-22T05:54:02;10.33;;;8.10;;
2388;SDS011;1205;47.984;7.668;2022-07-22T05:56:29;11.40;;;8.50;;
2388;SDS011;1205;47.984;7.668;2022-07-22T05:58:54;9.83;;;8.70;;
2388;SDS011;1205;47.984;7.668;2022-07-22T06:01:24;13.67;;;9.20;;
2388;SDS011;1205;47.984;7.668;2022-07-22T06:03:50;12.20;;;8.17;;
2388;SDS011;1205;47.984;7.668;2022-07-22T06:06:17;12.60;;;9.33;;
2388;SDS011;1205;47.984;7.668;2022-07-22T06:08:42;10.97;;;9.07;;
2388;SDS011;1205;47.984;7.668;2022-07-22T06:11:08;13.30;;;9.00;;
2388;SDS011;1205;47.984;7.668;2022-07-22T06:13:34;10.50;;;9.40;;
2388;SDS011;1205;47.984;7.668;2022-07-22T06:16:00;11.00;;;9.90;;
2388;SDS011;1205;47.984;7.668;2022-07-22T06:18:27;9.17;;;8.37;;
2388;SDS011;1205;47.984;7.668;2022-07-22T06:20:52;10.40;;;9.40;;
2388;SDS011;1205;47.984;7.668;2022-07-22T06:23:18;8.83;;;8.10;;
2388;SDS011;1205;47.984;7.668;2022-07-22T06:25:44;13.53;;;8.40;;
2388;SDS011;1205;47.984;7.668;2022-07-22T06:28:10;11.13;;;9.90;;
2388;SDS011;1205;47.984;7.668;2022-07-22T06:30:36;14.00;;;9.40;;
2388;SDS011;1205;47.984;7.668;2022-07-22T06:33:02;12.67;;;9.63;;
2388;SDS011;1205;47.984;7.668;2022-07-22T06:35:28;12.37;;;11.27;;
2388;SDS011;1205;47.984;7.668;2022-07-22T06:37:55;10.77;;;9.73;;
2388;SDS011;1205;47.984;7.668;2022-07-22T06:40:20;12.03;;;10.47;;
2388;SDS011;1205;47.984;7.668;2022-07-22T06:42:46;12.90;;;10.97;;
2388;SDS011;1205;47.984;7.668;2022-07-22T06:45:12;12.37;;;9.43;;
2388;SDS011;1205;47.984;7.668;2022-07-22T06:47:37;18.17;;;10.40;;
2388;SDS011;1205;47.984;7.668;2022-07-22T06:50:04;10.97;;;9.77;;
2388;SDS011;1205;47.984;7.668;2022-07-22T06:52:31;11.40;;;10.30;;
2388;SDS011;1205;47.984;7.668;2022-07-22T06:54:57;10.97;;;9.63;;
2388;SDS011;1205;47.984;7.668;2022-07-22T06:57:23;13.40;;;9.50;;
2388;SDS011;1205;47.984;7.668;2022-07-22T06:59:48;12.87;;;11.57;;
2388;SDS011;1205;47.984;7.668;2022-07-22T07:02:14;10.70;;;9.70;;
2388;SDS011;1205;47.984;7.668;2022-07-22T07:04:40;11.63;;;10.17;;
2388;SDS011;1205;47.984;7.668;2022-07-22T07:07:06;10.87;;;9.93;;
2388;SDS011;1205;47.984;7.668;2022-07-22T07:09:32;10.77;;;9.80;;
2388;SDS011;1205;47.984;7.668;2022-07-22T07:11:58;13.93;;;12.43;;
2388;SDS011;1205;47.984;7.668;2022-07-22T07:14:23;16.90;;;9.70;;
2388;SDS011;1205;47.984;7.668;2022-07-22T07:16:49;13.83;;;10.70;;
2388;SDS011;1205;47.984;7.668;2022-07-22T07:19:15;13.53;;;12.10;;
2388;SDS011;1205;47.984;7.668;2022-07-22T07:21:40;12.13;;;10.87;;
2388;SDS011;1205;47.984;7.668;2022-07-22T07:24:06;12.20;;;10.93;;
2388;SDS011;1205;47.984;7.668;2022-07-22T07:26:32;20.13;;;11.20;;
2388;SDS011;1205;47.984;7.668;2022-07-22T07:28:57;27.70;;;11.50;;
2388;SDS011;1205;47.984;7.668;2022-07-22T07:31:23;25.07;;;10.93;;
2388;SDS011;1205;47.984;7.668;2022-07-22T07:33:49;68.53;;;16.10;;
2388;SDS011;1205;47.984;7.668;2022-07-22T07:36:15;26.00;;;10.20;;
2388;SDS011;1205;47.984;7.668;2022-07-22T07:38:41;20.60;;;10.40;;
2388;SDS011;1205;47.984;7.668;2022-07-22T07:41:07;25.97;;;11.30;;
2388;SDS011;1205;47.984;7.668;2022-07-22T07:43:33;20.00;;;10.57;;
2388;SDS011;1205;47.984;7.668;2022-07-22T07:45:59;20.00;;;10.60;;
2388;SDS011;1205;47.984;7.668;2022-07-22T07:48:25;20.67;;;11.07;;
2388;SDS011;1205;47.984;7.668;2022-07-22T07:50:50;28.90;;;11.40;;
2388;SDS011;1205;47.984;7.668;2022-07-22T07:53:16;19.33;;;10.17;;
2388;SDS011;1205;47.984;7.668;2022-07-22T07:55:42;26.10;;;10.23;;
2388;SDS011;1205;47.984;7.668;2022-07-22T07:58:08;22.20;;;10.30;;
2388;SDS011;1205;47.984;7.668;2022-07-22T08:00:34;21.67;;;8.67;;
2388;SDS011;1205;47.984;7.668;2022-07-22T08:03:01;23.10;;;9.43;;
2388;SDS011;1205;47.984;7.668;2022-07-22T08:05:28;29.37;;;11.20;;
2388;SDS011;1205;47.984;7.668;2022-07-22T08:07:54;28.17;;;9.70;;
2388;SDS011;1205;47.984;7.668;2022-07-22T08:10:20;25.47;;;9.47;;
2388;SDS011;1205;47.984;7.668;2022-07-22T08:12:47;27.33;;;10.07;;
2388;SDS011;1205;47.984;7.668;2022-07-22T08:15:13;20.03;;;10.37;;
2388;SDS011;1205;47.984;7.668;2022-07-22T08:17:39;25.90;;;10.07;;
2388;SDS011;1205;47.984;7.668;2022-07-22T08:20:05;25.67;;;9.27;;
2388;SDS011;1205;47.984;7.668;2022-07-22T08:22:32;21.90;;;8.90;;
2388;SDS011;1205;47.984;7.668;2022-07-22T08:24:58;14.67;;;9.63;;
2388;SDS011;1205;47.984;7.668;2022-07-22T08:27:24;23.23;;;9.10;;
2388;SDS011;1205;47.984;7.668;2022-07-22T08:29:50;18.67;;;8.90;;
2388;SDS011;1205;47.984;7.668;2022-07-22T08:32:16;25.73;;;9.40;;
2388;SDS011;1205;47.984;7.668;2022-07-22T08:34:42;20.20;;;9.57;;
2388;SDS011;1205;47.984;7.668;2022-07-22T08:37:08;23.87;;;9.57;;
2388;SDS011;1205;47.984;7.668;2022-07-22T08:39:33;24.90;;;9.00;;
2388;SDS011;1205;47.984;7.668;2022-07-22T08:41:59;24.83;;;8.50;;
2388;SDS011;1205;47.984;7.668;2022-07-22T08:44:28;18.00;;;10.20;;
2388;SDS011;1205;47.984;7.668;2022-07-22T08:46:55;21.10;;;8.37;;
2388;SDS011;1205;47.984;7.668;2022-07-22T08:49:22;23.43;;;9.80;;
2388;SDS011;1205;47.984;7.668;2022-07-22T08:51:47;28.00;;;10.33;;
2388;SDS011;1205;47.984;7.668;2022-07-22T08:54:13;14.80;;;9.70;;
2388;SDS011;1205;47.984;7.668;2022-07-22T08:56:39;22.43;;;10.53;;
2388;SDS011;1205;47.984;7.668;2022-07-22T08:59:05;20.10;;;8.80;;
2388;SDS011;1205;47.984;7.668;2022-07-22T09:01:31;30.77;;;10.40;;
2388;SDS011;1205;47.984;7.668;2022-07-22T09:03:57;20.03;;;8.73;;
2388;SDS011;1205;47.984;7.668;2022-07-22T09:06:24;16.43;;;8.87;;
2388;SDS011;1205;47.984;7.668;2022-07-22T09:09:01;17.67;;;8.50;;
2388;SDS011;1205;47.984;7.668;2022-07-22T09:11:30;15.23;;;8.70;;
2388;SDS011;1205;47.984;7.668;2022-07-22T09:13:57;22.30;;;10.13;;
2388;SDS011;1205;47.984;7.668;2022-07-22T09:19:19;14.40;;;8.77;;
2388;SDS011;1205;47.984;7.668;2022-07-22T09:21:57;15.60;;;9.20;;
2388;SDS011;1205;47.984;7.668;2022-07-22T09:24:29;19.80;;;9.07;;
2388;SDS011;1205;47.984;7.668;2022-07-22T09:26:56;18.10;;;8.40;;
2388;SDS011;1205;47.984;7.668;2022-07-22T09:29:22;13.50;;;8.50;;
2388;SDS011;1205;47.984;7.668;2022-07-22T09:31:51;13.80;;;8.27;;
2388;SDS011;1205;47.984;7.668;2022-07-22T09:34:27;12.90;;;8.93;;
2388;SDS011;1205;47.984;7.668;2022-07-22T09:36:54;15.57;;;8.30;;
2388;SDS011;1205;47.984;7.668;2022-07-22T09:39:25;10.10;;;7.30;;
2388;SDS011;1205;47.984;7.668;2022-07-22T09:42:00;17.30;;;8.57;;
2388;SDS011;1205;47.984;7.668;2022-07-22T09:44:27;13.33;;;8.17;;
2388;SDS011;1205;47.984;7.668;2022-07-22T09:46:53;13.87;;;8.10;;
2388;SDS011;1205;47.984;7.668;2022-07-22T09:49:34;17.80;;;8.90;;
2388;SDS011;1205;47.984;7.668;2022-07-22T09:52:04;10.73;;;8.53;;
2388;SDS011;1205;47.984;7.668;2022-07-22T09:54:30;9.10;;;8.17;;
2388;SDS011;1205;47.984;7.668;2022-07-22T09:56:56;11.03;;;7.33;;
2388;SDS011;1205;47.984;7.668;2022-07-22T09:59:26;14.80;;;8.97;;
2388;SDS011;1205;47.984;7.668;2022-07-22T10:01:54;10.80;;;7.27;;
2388;SDS011;1205;47.984;7.668;2022-07-22T10:04:23;14.23;;;8.03;;
2388;SDS011;1205;47.984;7.668;2022-07-22T10:06:50;12.60;;;7.90;;
2388;SDS011;1205;47.984;7.668;2022-07-22T10:09:19;15.20;;;8.33;;
2388;SDS011;1205;47.984;7.668;2022-07-22T10:11:47;8.60;;;7.80;;
2388;SDS011;1205;47.984;7.668;2022-07-22T10:14:14;8.03;;;7.33;;
2388;SDS011;1205;47.984;7.668;2022-07-22T10:16:42;9.83;;;7.60;;
2388;SDS011;1205;47.984;7.668;2022-07-22T10:19:09;12.30;;;8.27;;
2388;SDS011;1205;47.984;7.668;2022-07-22T10:21:35;15.93;;;7.67;;
2388;SDS011;1205;47.984;7.668;2022-07-22T10:24:10;19.53;;;9.10;;
2388;SDS011;1205;47.984;7.668;2022-07-22T10:26:50;8.83;;;7.30;;
2388;SDS011;1205;47.984;7.668;2022-07-22T10:35:19;10.20;;;6.73;;
2388;SDS011;1205;47.984;7.668;2022-07-22T10:43:13;10.43;;;7.37;;
2388;SDS011;1205;47.984;7.668;2022-07-22T10:45:35;13.53;;;7.13;;
2388;SDS011;1205;47.984;7.668;2022-07-22T10:48:12;10.43;;;7.23;;
2388;SDS011;1205;47.984;7.668;2022-07-22T10:55:36;12.17;;;7.90;;
2388;SDS011;1205;47.984;7.668;2022-07-22T11:01:03;15.80;;;7.20;;
2388;SDS011;1205;47.984;7.668;2022-07-22T11:03:34;13.37;;;7.83;;
2388;SDS011;1205;47.984;7.668;2022-07-22T11:08:52;8.57;;;6.93;;
2388;SDS011;1205;47.984;7.668;2022-07-22T11:14:14;11.83;;;7.57;;
2388;SDS011;1205;47.984;7.668;2022-07-22T11:16:40;8.40;;;7.60;;
2388;SDS011;1205;47.984;7.668;2022-07-22T11:19:07;14.80;;;9.50;;
2388;SDS011;1205;47.984;7.668;2022-07-22T11:21:33;9.03;;;7.90;;
2388;SDS011;1205;47.984;7.668;2022-07-22T11:24:00;13.13;;;6.93;;
2388;SDS011;1205;47.984;7.668;2022-07-22T11:29:08;18.93;;;7.30;;
2388;SDS011;1205;47.984;7.668;2022-07-22T11:31:34;9.10;;;7.60;;
2388;SDS011;1205;47.984;7.668;2022-07-22T11:34:06;8.10;;;7.17;;
2388;SDS011;1205;47.984;7.668;2022-07-22T11:36:35;10.77;;;7.50;;
2388;SDS011;1205;47.984;7.668;2022-07-22T11:39:02;7.73;;;7.13;;
2388;SDS011;1205;47.984;7.668;2022-07-22T11:41:29;8.33;;;6.73;;
2388;SDS011;1205;47.984;7.668;2022-07-22T11:43:56;7.80;;;6.30;;
2388;SDS011;1205;47.984;7.668;2022-07-22T11:46:23;9.70;;;7.10;;
2388;SDS011;1205;47.984;7.668;2022-07-22T11:48:51;8.70;;;7.00;;
2388;SDS011;1205;47.984;7.668;2022-07-22T11:51:18;12.17;;;7.60;;
2388;SDS011;1205;47.984;7.668;2022-07-22T11:53:43;16.83;;;7.53;;
2388;SDS011;1205;47.984;7.668;2022-07-22T11:56:10;7.93;;;6.70;;
2388;SDS011;1205;47.984;7.668;2022-07-22T12:01:10;7.67;;;6.97;;
2388;SDS011;1205;47.984;7.668;2022-07-22T12:03:39;8.60;;;7.90;;
2388;SDS011;1205;47.984;7.668;2022-07-22T12:06:08;15.03;;;7.50;;
2388;SDS011;1205;47.984;7.668;2022-07-22T12:08:39;9.60;;;7.23;;
2388;SDS011;1205;47.984;7.668;2022-07-22T12:11:10;10.03;;;7.50;;
2388;SDS011;1205;47.984;7.668;2022-07-22T12:13:48;8.90;;;7.27;;
2388;SDS011;1205;47.984;7.668;2022-07-22T12:16:22;10.53;;;7.00;;
2388;SDS011;1205;47.984;7.668;2022-07-22T12:21:20;9.07;;;7.50;;
2388;SDS011;1205;47.984;7.668;2022-07-22T12:23:50;7.90;;;7.27;;
2388;SDS011;1205;47.984;7.668;2022-07-22T12:29:17;9.00;;;6.93;;
2388;SDS011;1205;47.984;7.668;2022-07-22T12:31:48;8.60;;;7.80;;
2388;SDS011;1205;47.984;7.668;2022-07-22T12:34:16;9.10;;;7.83;;
2388;SDS011;1205;47.984;7.668;2022-07-22T12:36:53;8.80;;;7.77;;
2388;SDS011;1205;47.984;7.668;2022-07-22T12:39:19;7.70;;;7.10;;
2388;SDS011;1205;47.984;7.668;2022-07-22T12:41:45;8.30;;;7.70;;
2388;SDS011;1205;47.984;7.668;2022-07-22T12:44:19;8.03;;;7.33;;
2388;SDS011;1205;47.984;7.668;2022-07-22T12:46:48;9.00;;;6.93;;
2388;SDS011;1205;47.984;7.668;2022-07-22T12:49:16;11.97;;;7.83;;
2388;SDS011;1205;47.984;7.668;2022-07-22T12:54:32;9.13;;;7.00;;
2388;SDS011;1205;47.984;7.668;2022-07-22T12:56:58;11.03;;;7.33;;
2388;SDS011;1205;47.984;7.668;2022-07-22T12:59:24;11.93;;;7.90;;
2388;SDS011;1205;47.984;7.668;2022-07-22T13:01:52;11.07;;;7.53;;
2388;SDS011;1205;47.984;7.668;2022-07-22T13:04:17;8.67;;;7.10;;
2388;SDS011;1205;47.984;7.668;2022-07-22T13:06:43;8.33;;;6.73;;
2388;SDS011;1205;47.984;7.668;2022-07-22T13:09:09;10.83;;;6.80;;
2388;SDS011;1205;47.984;7.668;2022-07-22T13:11:38;8.10;;;7.30;;
2388;SDS011;1205;47.984;7.668;2022-07-22T13:14:09;7.23;;;6.60;;
2388;SDS011;1205;47.984;7.668;2022-07-22T13:16:35;9.80;;;6.67;;
2388;SDS011;1205;47.984;7.668;2022-07-22T13:19:01;13.33;;;7.40;;
2388;SDS011;1205;47.984;7.668;2022-07-22T13:21:27;7.50;;;7.00;;
2388;SDS011;1205;47.984;7.668;2022-07-22T13:23:53;8.13;;;7.20;;
2388;SDS011;1205;47.984;7.668;2022-07-22T13:26:18;7.60;;;7.00;;
2388;SDS011;1205;47.984;7.668;2022-07-22T13:28:46;11.43;;;7.53;;
2388;SDS011;1205;47.984;7.668;2022-07-22T13:31:13;9.40;;;7.27;;
2388;SDS011;1205;47.984;7.668;2022-07-22T13:33:39;13.47;;;7.40;;
2388;SDS011;1205;47.984;7.668;2022-07-22T13:36:04;7.23;;;6.27;;
2388;SDS011;1205;47.984;7.668;2022-07-22T13:38:30;7.63;;;6.80;;
2388;SDS011;1205;47.984;7.668;2022-07-22T13:40:56;7.40;;;6.90;;
2388;SDS011;1205;47.984;7.668;2022-07-22T13:43:23;7.83;;;6.93;;
2388;SDS011;1205;47.984;7.668;2022-07-22T13:45:50;7.93;;;7.10;;
2388;SDS011;1205;47.984;7.668;2022-07-22T13:48:17;13.43;;;7.50;;
2388;SDS011;1205;47.984;7.668;2022-07-22T13:50:44;10.10;;;7.03;;
2388;SDS011;1205;47.984;7.668;2022-07-22T13:53:10;7.03;;;6.43;;
2388;SDS011;1205;47.984;7.668;2022-07-22T13:55:39;8.20;;;6.70;;
2388;SDS011;1205;47.984;7.668;2022-07-22T13:58:05;8.23;;;6.60;;
2388;SDS011;1205;47.984;7.668;2022-07-22T14:00:32;7.00;;;6.10;;
2388;SDS011;1205;47.984;7.668;2022-07-22T14:02:58;11.63;;;6.97;;
2388;SDS011;1205;47.984;7.668;2022-07-22T14:05:24;8.40;;;7.60;;
2388;SDS011;1205;47.984;7.668;2022-07-22T14:07:50;6.40;;;5.80;;
2388;SDS011;1205;47.984;7.668;2022-07-22T14:10:16;7.20;;;6.50;;
2388;SDS011;1205;47.984;7.668;2022-07-22T14:12:42;6.70;;;5.97;;
2388;SDS011;1205;47.984;7.668;2022-07-22T14:15:08;6.63;;;6.10;;
2388;SDS011;1205;47.984;7.668;2022-07-22T14:17:35;9.80;;;6.30;;
2388;SDS011;1205;47.984;7.668;2022-07-22T14:20:01;7.20;;;5.70;;
2388;SDS011;1205;47.984;7.668;2022-07-22T14:22:29;7.77;;;5.70;;
2388;SDS011;1205;47.984;7.668;2022-07-22T14:24:55;6.70;;;5.27;;
2388;SDS011;1205;47.984;7.668;2022-07-22T14:27:21;5.30;;;4.90;;
2388;SDS011;1205;47.984;7.668;2022-07-22T14:29:47;7.77;;;5.13;;
2388;SDS011;1205;47.984;7.668;2022-07-22T14:32:13;7.70;;;5.87;;
2388;SDS011;1205;47.984;7.668;2022-07-22T14:34:41;5.90;;;5.33;;
2388;SDS011;1205;47.984;7.668;2022-07-22T14:37:06;7.67;;;5.80;;
2388;SDS011;1205;47.984;7.668;2022-07-22T14:39:34;6.20;;;5.60;;
2388;SDS011;1205;47.984;7.668;2022-07-22T14:42:02;7.17;;;5.40;;
2388;SDS011;1205;47.984;7.668;2022-07-22T14:44:35;8.50;;;5.43;;
2388;SDS011;1205;47.984;7.668;2022-07-22T14:47:20;9.27;;;5.87;;
2388;SDS011;1205;47.984;7.668;2022-07-22T14:49:46;6.63;;;5.63;;
2388;SDS011;1205;47.984;7.668;2022-07-22T14:52:15;12.57;;;5.67;;
2388;SDS011;1205;47.984;7.668;2022-07-22T14:54:43;6.50;;;5.87;;
2388;SDS011;1205;47.984;7.668;2022-07-22T14:57:09;6.27;;;5.67;;
2388;SDS011;1205;47.984;7.668;2022-07-22T14:59:38;6.80;;;5.70;;
2388;SDS011;1205;47.984;7.668;2022-07-22T15:02:03;8.43;;;5.93;;
2388;SDS011;1205;47.984;7.668;2022-07-22T15:04:29;6.33;;;5.80;;
2388;SDS011;1205;47.984;7.668;2022-07-22T15:06:55;6.53;;;5.87;;
2388;SDS011;1205;47.984;7.668;2022-07-22T15:09:38;5.63;;;5.23;;
2388;SDS011;1205;47.984;7.668;2022-07-22T15:12:07;5.93;;;5.13;;
2388;SDS011;1205;47.984;7.668;2022-07-22T15:14:49;9.33;;;6.17;;
2388;SDS011;1205;47.984;7.668;2022-07-22T15:17:18;8.97;;;5.67;;
2388;SDS011;1205;47.984;7.668;2022-07-22T15:19:44;5.67;;;5.37;;
2388;SDS011;1205;47.984;7.668;2022-07-22T15:22:09;5.37;;;4.93;;
2388;SDS011;1205;47.984;7.668;2022-07-22T15:24:35;5.90;;;5.30;;
2388;SDS011;1205;47.984;7.668;2022-07-22T15:27:08;5.67;;;5.20;;
2388;SDS011;1205;47.984;7.668;2022-07-22T15:29:39;5.33;;;4.83;;
2388;SDS011;1205;47.984;7.668;2022-07-22T15:32:05;5.07;;;4.77;;
2388;SDS011;1205;47.984;7.668;2022-07-22T15:34:46;5.03;;;4.73;;
2388;SDS011;1205;47.984;7.668;2022-07-22T15:37:15;5.70;;;5.20;;
2388;SDS011;1205;47.984;7.668;2022-07-22T15:43:04;5.60;;;4.40;;
2388;SDS011;1205;47.984;7.668;2022-07-22T15:45:34;6.00;;;5.40;;
2388;SDS011;1205;47.984;7.668;2022-07-22T15:48:01;5.03;;;4.73;;
2388;SDS011;1205;47.984;7.668;2022-07-22T15:50:31;5.60;;;5.10;;